Portada
METAR-TAF:

METAR-TAF

Aeroports :

Kosrae, Micronèsia

latitud: 05-21N, longitud: 162-57E, altitud: 3 m

Observació

L'informe es va fer fa 15 hores i 49 minuts, a les 01:50 UTC
Vent 12 kt del Est
Temperatura 28°C
Humitat 84%
Pressió 1008 hPa
Visibilitat: 16.1 km
Cel ennuvolat a una alçada de 1700 ft, Cumulus congestus.
Cel ennuvolat a una alçada de 13000 ft
Cel cobert a una alçada de 30000 ft

METAR: PTSA 200150Z 08012KT 10SM BKN017TCU BKN130 OVC300 28/25 A2978 RMK TCU SW

Hora: 04:39 (17:39 UTC)

Pronòstic

L'informe es va fer fa 12 hores i 10 minuts, a les 05:29 UTC
Pronòstic vàlid del 20 a les 06 UTC al 21 a les 06 UTC
Vent 10 kt del Est
Visibilitat: 10 km
Cel ennuvolat a una alçada de 1500 ft
Cel cobert a una alçada de 10000 ft
xàfecs en les proximitats

TAF: PTSA 200529Z 2006/2106 08010KT P6SM VCSH BKN015 OVC100

Observacions i pronòstics meteorològics de més de 4000 aeroports (METAR i TAF).

Les estacions disponibles són els punts grocs i vermells al mapa.

Posi el ratolí al punt desitjat per veure el nom de l'estació.

Feu clic per veure les observacions i els pronòstics meteorològics.

Per canviar el mapa: feu clic els botons verds amb una creu de color negre per apropar; al botó verd amb un guió per allunyar la imatge; o en les fletxes verdes per a mapes adjacents.


METAR-TAF: